createdAt,value
2017-05-21T00:00:55.983Z,6.47
2017-05-21T00:01:56.015Z,6.47
2017-05-21T00:02:55.991Z,6.44
2017-05-21T00:03:56.017Z,6.37
2017-05-21T00:04:55.989Z,6.31
2017-05-21T00:05:55.995Z,6.29
2017-05-21T00:06:55.985Z,6.29
2017-05-21T00:07:55.998Z,6.26
2017-05-21T00:08:55.962Z,6.25
2017-05-21T00:09:55.990Z,6.23
2017-05-21T00:10:55.993Z,6.23
2017-05-21T00:11:55.995Z,6.26
2017-05-21T00:12:55.994Z,6.33
2017-05-21T00:13:55.987Z,6.38
2017-05-21T00:14:56.002Z,6.37
2017-05-21T00:15:56.025Z,6.37
2017-05-21T00:16:56.003Z,6.38
2017-05-21T00:17:55.996Z,6.38
2017-05-21T00:18:56.004Z,6.40
2017-05-21T00:19:56.040Z,6.41
2017-05-21T00:20:55.965Z,6.41
2017-05-21T00:21:56.003Z,6.41
2017-05-21T00:22:55.987Z,6.40
2017-05-21T00:23:55.990Z,6.36
2017-05-21T00:24:55.993Z,6.36
2017-05-21T00:25:56.007Z,6.33
2017-05-21T00:26:56.007Z,6.29
2017-05-21T00:27:56.004Z,6.26
2017-05-21T00:28:56.025Z,6.22
2017-05-21T00:29:56.050Z,6.15
2017-05-21T00:30:56.001Z,6.11
2017-05-21T00:31:56.002Z,6.02
2017-05-21T00:32:56.013Z,5.91
2017-05-21T00:33:56.004Z,5.82
2017-05-21T00:34:56.034Z,5.79
2017-05-21T00:35:56.009Z,5.78
2017-05-21T00:36:56.115Z,5.77
2017-05-21T00:37:55.982Z,5.79
2017-05-21T00:38:56.014Z,5.82
2017-05-21T00:39:56.011Z,5.86
2017-05-21T00:40:56.035Z,5.91
2017-05-21T00:41:56.006Z,5.97
2017-05-21T00:42:55.979Z,5.99
2017-05-21T00:43:56.018Z,5.91
2017-05-21T00:44:56.018Z,5.82
2017-05-21T00:45:56.038Z,5.77
2017-05-21T00:46:56.016Z,5.73
2017-05-21T00:47:55.986Z,5.71
2017-05-21T00:48:55.988Z,5.67
2017-05-21T00:49:56.009Z,5.63
2017-05-21T00:50:56.002Z,5.62
2017-05-21T00:51:56.020Z,5.59
2017-05-21T00:52:56.025Z,5.55
2017-05-21T00:53:56.022Z,5.52
2017-05-21T00:54:56.018Z,5.48
2017-05-21T00:55:56.014Z,5.44
2017-05-21T00:56:56.015Z,5.44
2017-05-21T00:57:56.012Z,5.44
2017-05-21T00:58:56.022Z,5.42
2017-05-21T00:59:56.022Z,5.45
2017-05-21T01:00:56.017Z,5.46
2017-05-21T01:01:55.990Z,5.46
2017-05-21T01:02:56.025Z,5.48
2017-05-21T01:03:56.022Z,5.49
2017-05-21T01:04:56.024Z,5.52
2017-05-21T01:05:56.029Z,5.60
2017-05-21T01:06:56.018Z,5.66
2017-05-21T01:07:56.022Z,5.70
2017-05-21T01:08:55.993Z,5.74
2017-05-21T01:09:56.021Z,5.75
2017-05-21T01:10:56.070Z,5.74
2017-05-21T01:11:56.034Z,5.74
2017-05-21T01:12:56.027Z,5.67
2017-05-21T01:13:56.033Z,5.60
2017-05-21T01:14:56.006Z,5.55
2017-05-21T01:15:56.018Z,5.48
2017-05-21T01:16:56.032Z,5.42
2017-05-21T01:17:56.046Z,5.38
2017-05-21T01:18:56.026Z,5.29
2017-05-21T01:19:56.035Z,5.25
2017-05-21T01:20:56.022Z,5.22
2017-05-21T01:21:56.029Z,5.22
2017-05-21T01:22:56.038Z,5.23
2017-05-21T01:23:56.045Z,5.25
2017-05-21T01:24:56.027Z,5.21
2017-05-21T01:25:56.037Z,5.21
2017-05-21T01:26:56.030Z,5.18
2017-05-21T01:27:56.005Z,5.26
2017-05-21T01:28:56.038Z,5.27
2017-05-21T01:29:56.043Z,5.23
2017-05-21T01:30:56.005Z,5.22
2017-05-21T01:31:56.040Z,5.33
2017-05-21T01:32:56.039Z,5.37
2017-05-21T01:33:56.039Z,5.38
2017-05-21T01:34:56.048Z,5.37
2017-05-21T01:35:56.030Z,5.38
2017-05-21T01:36:56.041Z,5.41
2017-05-21T01:37:56.009Z,5.40
2017-05-21T01:38:56.010Z,5.42
2017-05-21T01:39:56.049Z,5.35
2017-05-21T01:40:56.049Z,5.27
2017-05-21T01:41:56.045Z,5.18
2017-05-21T01:42:56.032Z,5.16
2017-05-21T01:43:56.016Z,5.16
2017-05-21T01:44:56.032Z,5.22
2017-05-21T01:45:56.042Z,5.25
2017-05-21T01:46:56.064Z,5.23
2017-05-21T01:47:56.051Z,5.27
2017-05-21T01:48:56.054Z,5.33
2017-05-21T01:49:56.033Z,5.33
2017-05-21T01:50:56.040Z,5.29
2017-05-21T01:51:56.047Z,5.27
2017-05-21T01:52:56.048Z,5.29
2017-05-21T01:53:56.052Z,5.27
2017-05-21T01:54:56.156Z,5.29
2017-05-21T01:55:56.019Z,5.30
2017-05-21T01:56:56.047Z,5.34
2017-05-21T01:57:56.161Z,5.38
2017-05-21T01:58:56.056Z,5.40
2017-05-21T01:59:56.053Z,5.42
2017-05-21T02:00:56.054Z,5.42
2017-05-21T02:01:56.057Z,5.34
2017-05-21T02:02:56.055Z,5.27
2017-05-21T02:03:56.051Z,5.23
2017-05-21T02:04:56.059Z,5.16
2017-05-21T02:05:56.040Z,5.11
2017-05-21T02:06:56.056Z,5.06
2017-05-21T02:07:56.056Z,4.98
2017-05-21T02:08:56.060Z,4.95
2017-05-21T02:09:56.058Z,4.92
2017-05-21T02:10:56.055Z,4.87
2017-05-21T02:11:56.062Z,4.80
2017-05-21T02:12:56.059Z,4.80
2017-05-21T02:13:56.061Z,4.78
2017-05-21T02:14:56.031Z,4.78
2017-05-21T02:15:56.064Z,4.75
2017-05-21T02:16:56.031Z,4.75
2017-05-21T02:17:56.066Z,4.74
2017-05-21T02:18:56.090Z,4.73
2017-05-21T02:19:56.086Z,4.69
2017-05-21T02:20:56.033Z,4.67
2017-05-21T02:21:56.086Z,4.64
2017-05-21T02:22:56.034Z,4.60
2017-05-21T02:23:56.089Z,4.60
2017-05-21T02:24:56.057Z,4.59
2017-05-21T02:25:56.065Z,4.55
2017-05-21T02:26:56.064Z,4.60
2017-05-21T02:27:56.037Z,4.59
2017-05-21T02:28:56.092Z,4.55
2017-05-21T02:29:56.052Z,4.55
2017-05-21T02:30:56.065Z,4.54
2017-05-21T02:31:56.069Z,4.54
2017-05-21T02:32:56.076Z,4.51
2017-05-21T02:33:56.062Z,4.51
2017-05-21T02:34:56.061Z,4.48
2017-05-21T02:35:56.072Z,4.47
2017-05-21T02:36:56.078Z,4.48
2017-05-21T02:37:56.064Z,4.51
2017-05-21T02:38:56.128Z,4.48
2017-05-21T02:39:56.071Z,4.46
2017-05-21T02:40:56.068Z,4.44
2017-05-21T02:41:56.097Z,4.43
2017-05-21T02:42:56.062Z,4.40
2017-05-21T02:43:56.080Z,4.40
2017-05-21T02:44:56.077Z,4.43
2017-05-21T02:45:56.073Z,4.43
2017-05-21T02:46:56.082Z,4.47
2017-05-21T02:47:56.080Z,4.48
2017-05-21T02:48:56.075Z,4.51
2017-05-21T02:49:56.073Z,4.51
2017-05-21T02:50:56.074Z,4.52
2017-05-21T02:51:56.081Z,4.50
2017-05-21T02:52:56.083Z,4.47
2017-05-21T02:53:56.083Z,4.48
2017-05-21T02:54:56.123Z,4.50
2017-05-21T02:55:56.074Z,4.54
2017-05-21T02:56:56.074Z,4.54
2017-05-21T02:57:56.078Z,4.55
2017-05-21T02:58:56.077Z,4.52
2017-05-21T02:59:56.083Z,4.52
2017-05-21T03:00:56.073Z,4.55
2017-05-21T03:01:56.077Z,4.57
2017-05-21T03:02:56.082Z,4.57
2017-05-21T03:03:56.129Z,4.57
2017-05-21T03:04:56.108Z,4.52
2017-05-21T03:05:56.054Z,4.55
2017-05-21T03:06:56.058Z,4.55
2017-05-21T03:07:56.093Z,4.54
2017-05-21T03:08:56.089Z,4.57
2017-05-21T03:09:56.128Z,4.55
2017-05-21T03:10:56.093Z,4.55
2017-05-21T03:11:56.061Z,4.55
2017-05-21T03:12:56.051Z,4.50
2017-05-21T03:13:56.081Z,4.51
2017-05-21T03:14:56.136Z,4.50
2017-05-21T03:15:56.087Z,4.48
2017-05-21T03:16:56.091Z,4.47
2017-05-21T03:17:56.078Z,4.47
2017-05-21T03:18:56.094Z,4.48
2017-05-21T03:19:56.093Z,4.48
2017-05-21T03:20:56.079Z,4.47
2017-05-21T03:21:56.137Z,4.48
2017-05-21T03:22:56.084Z,4.50
2017-05-21T03:23:56.140Z,4.54
2017-05-21T03:24:56.099Z,4.54
2017-05-21T03:25:56.090Z,4.54
2017-05-21T03:26:56.061Z,4.51
2017-05-21T03:27:56.101Z,4.48
2017-05-21T03:28:56.104Z,4.47
2017-05-21T03:29:56.123Z,4.48
2017-05-21T03:30:56.124Z,4.50
2017-05-21T03:31:56.104Z,4.54
2017-05-21T03:32:56.094Z,4.52
2017-05-21T03:33:56.070Z,4.51
2017-05-21T03:34:56.066Z,4.48
2017-05-21T03:35:56.107Z,4.48
2017-05-21T03:36:56.104Z,4.50
2017-05-21T03:37:56.155Z,4.50
2017-05-21T03:38:56.120Z,4.51
2017-05-21T03:39:56.069Z,4.50
2017-05-21T03:40:56.082Z,4.51
2017-05-21T03:41:56.111Z,4.55
2017-05-21T03:42:56.099Z,4.62
2017-05-21T03:43:56.109Z,4.71
2017-05-21T03:44:56.075Z,4.70
2017-05-21T03:45:56.211Z,4.69
2017-05-21T03:46:56.099Z,4.70
2017-05-21T03:47:56.067Z,4.73
2017-05-21T03:48:56.102Z,4.75
2017-05-21T03:49:56.109Z,4.78
2017-05-21T03:50:56.114Z,4.82
2017-05-21T03:51:56.074Z,4.85
2017-05-21T03:52:56.105Z,4.95
2017-05-21T03:53:56.079Z,4.99
2017-05-21T03:54:56.174Z,5.04
2017-05-21T03:55:56.113Z,5.11
2017-05-21T03:56:56.088Z,5.16
2017-05-21T03:57:56.115Z,5.19
2017-05-21T03:58:56.121Z,5.25
2017-05-21T03:59:56.112Z,5.30
2017-05-21T04:00:56.109Z,5.35
2017-05-21T04:01:56.138Z,5.44
2017-05-21T04:02:56.110Z,5.48
2017-05-21T04:03:56.170Z,5.56
2017-05-21T04:04:56.113Z,5.62
2017-05-21T04:05:56.095Z,5.70
2017-05-21T04:06:56.135Z,5.77
2017-05-21T04:07:56.119Z,5.82
2017-05-21T04:08:56.109Z,5.88
2017-05-21T04:09:56.124Z,5.95
2017-05-21T04:10:56.119Z,6.00
2017-05-21T04:11:56.082Z,6.11
2017-05-21T04:12:56.128Z,6.15
2017-05-21T04:13:56.124Z,6.18
2017-05-21T04:14:56.124Z,6.23
2017-05-21T04:15:56.085Z,6.30
2017-05-21T04:16:56.114Z,6.37
2017-05-21T04:17:56.115Z,6.41
2017-05-21T04:18:56.123Z,6.45
2017-05-21T04:19:56.109Z,6.49
2017-05-21T04:20:56.125Z,6.55
2017-05-21T04:21:56.114Z,6.60
2017-05-21T04:22:56.128Z,6.61
2017-05-21T04:23:56.129Z,6.64
2017-05-21T04:24:56.128Z,6.64
2017-05-21T04:25:56.117Z,6.67
2017-05-21T04:26:56.121Z,6.70
2017-05-21T04:27:56.109Z,6.74
2017-05-21T04:28:56.108Z,6.71
2017-05-21T04:29:56.149Z,6.72
2017-05-21T04:30:56.143Z,6.77
2017-05-21T04:31:56.109Z,6.78
2017-05-21T04:32:56.132Z,6.81
2017-05-21T04:33:56.123Z,6.86
2017-05-21T04:34:56.123Z,6.90
2017-05-21T04:35:56.094Z,6.90
2017-05-21T04:36:56.242Z,6.93
2017-05-21T04:37:56.132Z,6.97
2017-05-21T04:38:56.098Z,7.01
2017-05-21T04:39:56.111Z,7.02
2017-05-21T04:40:56.157Z,7.05
2017-05-21T04:41:56.128Z,7.07
2017-05-21T04:42:56.154Z,7.08
2017-05-21T04:43:56.098Z,7.09
2017-05-21T04:44:56.158Z,7.11
2017-05-21T04:45:56.127Z,7.09
2017-05-21T04:46:56.098Z,7.09
2017-05-21T04:47:56.133Z,7.07
2017-05-21T04:48:56.141Z,7.05
2017-05-21T04:49:56.140Z,7.04
2017-05-21T04:50:56.161Z,7.07
2017-05-21T04:51:56.165Z,7.08
2017-05-21T04:52:56.135Z,7.09
2017-05-21T04:53:56.124Z,7.11
2017-05-21T04:54:56.165Z,7.04
2017-05-21T04:55:56.138Z,7.05
2017-05-21T04:56:56.157Z,7.07
2017-05-21T04:57:56.166Z,7.08
2017-05-21T04:58:56.145Z,7.13
2017-05-21T04:59:56.141Z,7.16
2017-05-21T05:00:56.145Z,7.19
2017-05-21T05:01:56.253Z,7.22
2017-05-21T05:02:56.150Z,7.24
2017-05-21T05:03:56.111Z,7.29
2017-05-21T05:04:56.162Z,7.30
2017-05-21T05:05:56.146Z,7.26
2017-05-21T05:06:56.152Z,7.27
2017-05-21T05:07:56.141Z,7.27
2017-05-21T05:08:56.167Z,7.29
2017-05-21T05:09:56.170Z,7.26
2017-05-21T05:10:56.151Z,7.27
2017-05-21T05:11:56.142Z,7.29
2017-05-21T05:12:56.150Z,7.31
2017-05-21T05:13:56.130Z,7.41
2017-05-21T05:14:56.152Z,7.45
2017-05-21T05:15:56.156Z,7.52
2017-05-21T05:16:56.153Z,7.59
2017-05-21T05:17:56.159Z,7.71
2017-05-21T05:18:56.118Z,7.81
2017-05-21T05:19:56.157Z,7.93
2017-05-21T05:20:56.134Z,8.02
2017-05-21T05:21:56.156Z,8.06
2017-05-21T05:22:56.147Z,7.95
2017-05-21T05:23:56.157Z,7.90
2017-05-21T05:24:56.157Z,7.93
2017-05-21T05:25:56.157Z,7.97
2017-05-21T05:26:56.155Z,7.97
2017-05-21T05:27:56.157Z,7.92
2017-05-21T05:28:56.160Z,7.97
2017-05-21T05:29:56.152Z,8.04
2017-05-21T05:30:56.313Z,8.09
2017-05-21T05:31:56.164Z,8.16
2017-05-21T05:32:56.162Z,8.19
2017-05-21T05:33:56.157Z,8.23
2017-05-21T05:34:56.149Z,8.31
2017-05-21T05:35:56.161Z,8.35
2017-05-21T05:36:56.157Z,8.37
2017-05-21T05:37:56.184Z,8.34
2017-05-21T05:38:56.145Z,8.43
2017-05-21T05:39:56.170Z,8.45
2017-05-21T05:40:56.275Z,8.49
2017-05-21T05:41:56.183Z,8.45
2017-05-21T05:42:56.174Z,8.47
2017-05-21T05:43:56.184Z,8.57
2017-05-21T05:44:56.170Z,8.74
2017-05-21T05:45:56.175Z,8.87
2017-05-21T05:46:56.165Z,8.97
2017-05-21T05:47:56.171Z,9.09
2017-05-21T05:48:56.172Z,9.11
2017-05-21T05:49:56.149Z,9.02
2017-05-21T05:50:56.173Z,9.05
2017-05-21T05:51:56.155Z,9.08
2017-05-21T05:52:56.179Z,9.12
2017-05-21T05:53:56.154Z,9.22
2017-05-21T05:54:56.179Z,9.28
2017-05-21T05:55:56.178Z,9.39
2017-05-21T05:56:56.165Z,9.50
2017-05-21T05:57:56.185Z,9.55
2017-05-21T05:58:56.177Z,9.60
2017-05-21T05:59:56.177Z,9.76
2017-05-21T06:00:56.174Z,9.94
2017-05-21T06:01:56.179Z,10.11
2017-05-21T06:02:56.182Z,10.09
2017-05-21T06:03:56.168Z,10.18
2017-05-21T06:04:56.181Z,10.32
2017-05-21T06:05:56.180Z,10.49
2017-05-21T06:06:56.180Z,10.52
2017-05-21T06:07:56.198Z,10.64
2017-05-21T06:08:56.201Z,10.68
2017-05-21T06:09:56.182Z,10.75
2017-05-21T06:10:56.183Z,10.91
2017-05-21T06:11:56.183Z,10.97
2017-05-21T06:12:56.179Z,11.18
2017-05-21T06:13:56.180Z,11.35
2017-05-21T06:14:56.190Z,11.54
2017-05-21T06:15:56.182Z,11.60
2017-05-21T06:16:56.181Z,11.67
2017-05-21T06:17:56.174Z,11.78
2017-05-21T06:18:56.181Z,11.79
2017-05-21T06:19:56.144Z,11.72
2017-05-21T06:20:56.146Z,11.58
2017-05-21T06:21:56.181Z,11.71
2017-05-21T06:22:56.192Z,11.94
2017-05-21T06:23:56.191Z,12.16
2017-05-21T06:24:56.185Z,12.12
2017-05-21T06:25:56.193Z,12.16
2017-05-21T06:26:56.190Z,12.31
2017-05-21T06:27:56.208Z,12.42
2017-05-21T06:28:56.191Z,12.60
2017-05-21T06:29:56.187Z,12.77
2017-05-21T06:30:56.152Z,12.91
2017-05-21T06:31:56.182Z,13.05
2017-05-21T06:32:56.247Z,13.10
2017-05-21T06:33:56.172Z,13.17
2017-05-21T06:34:56.193Z,13.13
2017-05-21T06:35:56.176Z,13.20
2017-05-21T06:36:56.218Z,13.12
2017-05-21T06:37:56.190Z,13.09
2017-05-21T06:38:56.196Z,12.91
2017-05-21T06:39:56.216Z,12.84
2017-05-21T06:40:56.202Z,12.80
2017-05-21T06:41:56.219Z,12.99
2017-05-21T06:42:56.199Z,13.10
2017-05-21T06:43:56.206Z,13.29
2017-05-21T06:44:56.181Z,13.53
2017-05-21T06:45:56.160Z,13.68
2017-05-21T06:46:56.197Z,13.53
2017-05-21T06:47:56.161Z,13.61
2017-05-21T06:48:56.228Z,13.69
2017-05-21T06:49:56.180Z,13.81
2017-05-21T06:50:56.160Z,13.95
2017-05-21T06:51:56.185Z,14.14
2017-05-21T06:52:56.205Z,14.27
2017-05-21T06:53:56.167Z,14.33
2017-05-21T06:54:56.313Z,14.32
2017-05-21T06:55:56.206Z,14.31
2017-05-21T06:56:56.165Z,14.28
2017-05-21T06:57:56.203Z,14.17
2017-05-21T06:58:56.169Z,14.24
2017-05-21T06:59:56.208Z,14.35
2017-05-21T07:00:56.215Z,14.10
2017-05-21T07:01:56.234Z,14.25
2017-05-21T07:02:56.201Z,14.44
2017-05-21T07:03:56.231Z,14.38
2017-05-21T07:04:56.317Z,14.39
2017-05-21T07:05:56.203Z,14.51
2017-05-21T07:06:56.210Z,14.73
2017-05-21T07:07:56.233Z,14.95
2017-05-21T07:08:56.210Z,14.83
2017-05-21T07:09:56.208Z,15.00
2017-05-21T07:10:56.205Z,15.18
2017-05-21T07:11:56.211Z,15.08
2017-05-21T07:12:56.206Z,14.89
2017-05-21T07:13:56.210Z,15.10
2017-05-21T07:14:56.208Z,15.19
2017-05-21T07:15:56.216Z,15.33
2017-05-21T07:16:56.218Z,15.53
2017-05-21T07:17:56.216Z,15.58
2017-05-21T07:18:56.209Z,15.69
2017-05-21T07:19:56.240Z,15.90
2017-05-21T07:20:56.224Z,16.02
2017-05-21T07:21:56.209Z,16.11
2017-05-21T07:22:56.200Z,16.27
2017-05-21T07:23:56.215Z,16.25
2017-05-21T07:24:56.328Z,16.46
2017-05-21T07:25:56.220Z,16.50
2017-05-21T07:26:56.219Z,16.65
2017-05-21T07:27:56.199Z,16.69
2017-05-21T07:28:56.229Z,16.62
2017-05-21T07:29:56.184Z,16.63
2017-05-21T07:30:56.217Z,16.57
2017-05-21T07:31:56.216Z,16.79
2017-05-21T07:32:56.216Z,16.97
2017-05-21T07:33:56.225Z,17.12
2017-05-21T07:34:56.192Z,17.37
2017-05-21T07:35:56.245Z,17.51
2017-05-21T07:36:56.188Z,17.69
2017-05-21T07:37:56.184Z,17.92
2017-05-21T07:38:56.225Z,18.03
2017-05-21T07:39:56.236Z,18.12
2017-05-21T07:40:56.230Z,18.23
2017-05-21T07:41:56.219Z,18.31
2017-05-21T07:42:56.224Z,18.41
2017-05-21T07:43:56.197Z,18.61
2017-05-21T07:44:56.232Z,18.79
2017-05-21T07:45:56.253Z,18.35
2017-05-21T07:46:56.250Z,18.32
2017-05-21T07:47:56.225Z,18.48
2017-05-21T07:48:56.235Z,18.16
2017-05-21T07:49:56.342Z,18.06
2017-05-21T07:50:56.236Z,18.00
2017-05-21T07:51:56.193Z,17.58
2017-05-21T07:52:56.237Z,17.35
2017-05-21T07:53:56.228Z,17.36
2017-05-21T07:54:56.198Z,17.43
2017-05-21T07:55:56.237Z,17.69
2017-05-21T07:56:56.213Z,17.71
2017-05-21T07:57:56.200Z,17.89
2017-05-21T07:58:56.217Z,18.06
2017-05-21T07:59:56.261Z,18.18
2017-05-21T08:00:56.198Z,18.46
2017-05-21T08:01:56.245Z,18.50
2017-05-21T08:02:56.202Z,18.72
2017-05-21T08:03:56.198Z,18.84
2017-05-21T08:04:56.234Z,18.51
2017-05-21T08:05:56.218Z,18.69
2017-05-21T08:06:56.244Z,18.98
2017-05-21T08:07:56.241Z,19.31
2017-05-21T08:08:56.259Z,19.24
2017-05-21T08:09:56.233Z,19.21
2017-05-21T08:10:56.244Z,19.29
2017-05-21T08:11:56.262Z,19.42
2017-05-21T08:12:56.242Z,19.49
2017-05-21T08:13:56.236Z,19.66
2017-05-21T08:14:56.236Z,19.74
2017-05-21T08:15:56.265Z,19.77
2017-05-21T08:16:56.246Z,19.68
2017-05-21T08:17:56.247Z,19.57
2017-05-21T08:18:56.247Z,19.64
2017-05-21T08:19:56.242Z,19.77
2017-05-21T08:20:56.249Z,19.90
2017-05-21T08:21:56.245Z,20.01
2017-05-21T08:22:56.250Z,20.17
2017-05-21T08:23:56.248Z,20.41
2017-05-21T08:24:56.242Z,20.14
2017-05-21T08:25:56.273Z,19.88
2017-05-21T08:26:56.219Z,19.92
2017-05-21T08:27:56.274Z,19.66
2017-05-21T08:28:56.243Z,19.58
2017-05-21T08:29:56.277Z,19.43
2017-05-21T08:30:56.245Z,19.36
2017-05-21T08:31:56.210Z,19.36
2017-05-21T08:32:56.252Z,19.61
2017-05-21T08:33:56.230Z,19.44
2017-05-21T08:34:56.279Z,19.58
2017-05-21T08:35:56.258Z,19.88
2017-05-21T08:36:56.250Z,20.13
2017-05-21T08:37:56.247Z,20.20
2017-05-21T08:38:56.257Z,20.18
2017-05-21T08:39:56.257Z,20.25
2017-05-21T08:40:56.250Z,20.52
2017-05-21T08:41:56.260Z,20.75
2017-05-21T08:42:56.217Z,20.98
2017-05-21T08:43:56.235Z,21.13
2017-05-21T08:44:56.282Z,21.22
2017-05-21T08:45:56.262Z,21.45
2017-05-21T08:46:56.264Z,21.69
2017-05-21T08:47:56.229Z,21.64
2017-05-21T08:48:56.266Z,21.39
2017-05-21T08:49:56.282Z,21.09
2017-05-21T08:50:56.266Z,20.99
2017-05-21T08:51:56.263Z,21.05
2017-05-21T08:52:56.283Z,20.66
2017-05-21T08:53:56.241Z,20.45
2017-05-21T08:54:56.224Z,20.38
2017-05-21T08:55:56.260Z,20.17
2017-05-21T08:56:56.259Z,19.90
2017-05-21T08:57:56.267Z,19.66
2017-05-21T08:58:56.289Z,19.61
2017-05-21T08:59:56.251Z,19.70
2017-05-21T09:00:56.247Z,19.88
2017-05-21T09:01:56.263Z,19.66
2017-05-21T09:02:56.292Z,19.55
2017-05-21T09:03:56.273Z,19.65
2017-05-21T09:04:56.276Z,19.73
2017-05-21T09:05:56.275Z,19.83
2017-05-21T09:06:56.251Z,19.96
2017-05-21T09:07:56.251Z,19.98
2017-05-21T09:08:56.263Z,20.05
2017-05-21T09:09:56.263Z,20.45
2017-05-21T09:10:56.269Z,20.75
2017-05-21T09:11:56.274Z,20.83
2017-05-21T09:12:56.276Z,21.04
2017-05-21T09:13:56.272Z,20.79
2017-05-21T09:14:56.327Z,20.82
2017-05-21T09:15:56.266Z,20.68
2017-05-21T09:16:56.271Z,20.77
2017-05-21T09:17:56.277Z,20.97
2017-05-21T09:18:56.270Z,21.32
2017-05-21T09:19:56.279Z,21.53
2017-05-21T09:20:56.278Z,21.53
2017-05-21T09:21:56.270Z,21.53
2017-05-21T09:22:56.275Z,21.65
2017-05-21T09:23:56.258Z,21.64
2017-05-21T09:24:56.273Z,21.32
2017-05-21T09:25:56.259Z,21.13
2017-05-21T09:26:56.287Z,21.42
2017-05-21T09:27:56.241Z,21.45
2017-05-21T09:28:56.286Z,21.09
2017-05-21T09:29:56.276Z,20.88
2017-05-21T09:30:56.284Z,20.46
2017-05-21T09:31:56.304Z,20.47
2017-05-21T09:32:56.283Z,20.50
2017-05-21T09:33:56.276Z,20.16
2017-05-21T09:34:56.307Z,20.36
2017-05-21T09:35:56.289Z,20.27
2017-05-21T09:36:56.292Z,19.91
2017-05-21T09:37:56.282Z,19.88
2017-05-21T09:38:56.308Z,19.85
2017-05-21T09:39:56.310Z,20.02
2017-05-21T09:40:56.279Z,19.64
2017-05-21T09:41:56.312Z,19.84
2017-05-21T09:42:56.297Z,19.90
2017-05-21T09:43:56.251Z,20.01
2017-05-21T09:44:56.273Z,20.13
2017-05-21T09:45:56.295Z,19.99
2017-05-21T09:46:56.268Z,19.90
2017-05-21T09:47:56.316Z,20.01
2017-05-21T09:48:56.295Z,20.02
2017-05-21T09:49:56.319Z,20.03
2017-05-21T09:50:56.315Z,20.01
2017-05-21T09:51:56.316Z,19.76
2017-05-21T09:52:56.298Z,19.66
2017-05-21T09:53:56.289Z,19.53
2017-05-21T09:54:56.272Z,19.38
2017-05-21T09:55:56.296Z,19.28
2017-05-21T09:56:56.289Z,19.32
2017-05-21T09:57:56.286Z,19.21
2017-05-21T09:58:56.289Z,19.24
2017-05-21T09:59:56.301Z,19.38
2017-05-21T10:00:56.257Z,19.62
2017-05-21T10:01:56.313Z,19.85
2017-05-21T10:02:56.321Z,19.98
2017-05-21T10:03:56.282Z,20.23
2017-05-21T10:04:56.305Z,20.57
2017-05-21T10:05:56.324Z,20.66
2017-05-21T10:06:56.301Z,20.80
2017-05-21T10:07:56.300Z,20.80
2017-05-21T10:08:56.278Z,21.09
2017-05-21T10:09:56.305Z,21.47
2017-05-21T10:10:56.300Z,21.61
2017-05-21T10:11:56.315Z,21.62
2017-05-21T10:12:56.323Z,21.89
2017-05-21T10:13:56.309Z,21.83
2017-05-21T10:14:56.306Z,21.98
2017-05-21T10:15:56.310Z,21.96
2017-05-21T10:16:56.261Z,21.79
2017-05-21T10:17:56.309Z,21.56
2017-05-21T10:18:56.302Z,21.38
2017-05-21T10:19:56.309Z,21.14
2017-05-21T10:20:56.305Z,21.05
2017-05-21T10:21:56.333Z,21.17
2017-05-21T10:22:56.309Z,21.36
2017-05-21T10:23:56.272Z,21.61
2017-05-21T10:24:56.274Z,21.54
2017-05-21T10:25:56.269Z,21.08
2017-05-21T10:26:56.421Z,20.99
2017-05-21T10:27:56.312Z,20.91
2017-05-21T10:28:56.314Z,21.13
2017-05-21T10:29:56.317Z,21.04
2017-05-21T10:30:56.307Z,20.99
2017-05-21T10:31:56.324Z,21.18
2017-05-21T10:32:56.325Z,21.51
2017-05-21T10:33:56.317Z,21.58
2017-05-21T10:34:56.311Z,21.75
2017-05-21T10:35:56.319Z,22.09
2017-05-21T10:36:56.312Z,21.86
2017-05-21T10:37:56.323Z,22.20
2017-05-21T10:38:56.314Z,22.09
2017-05-21T10:39:56.321Z,22.10
2017-05-21T10:40:56.330Z,22.60
2017-05-21T10:41:56.342Z,23.06
2017-05-21T10:42:56.322Z,23.26
2017-05-21T10:43:56.319Z,23.22
2017-05-21T10:44:56.316Z,23.34
2017-05-21T10:45:56.314Z,23.64
2017-05-21T10:46:56.346Z,23.33
2017-05-21T10:47:56.318Z,23.20
2017-05-21T10:48:56.284Z,23.16
2017-05-21T10:49:56.283Z,23.24
2017-05-21T10:50:56.324Z,23.37
2017-05-21T10:51:56.324Z,23.34
2017-05-21T10:52:56.326Z,23.58
2017-05-21T10:53:56.306Z,23.33
2017-05-21T10:54:56.330Z,23.26
2017-05-21T10:55:56.326Z,23.35
2017-05-21T10:56:56.323Z,23.31
2017-05-21T10:57:56.330Z,23.05
2017-05-21T10:58:56.285Z,22.75
2017-05-21T10:59:56.324Z,22.88
2017-05-21T11:00:56.306Z,22.95
2017-05-21T11:01:56.352Z,23.01
2017-05-21T11:02:56.332Z,22.84
2017-05-21T11:03:56.307Z,22.82
2017-05-21T11:04:56.325Z,22.79
2017-05-21T11:05:56.326Z,22.71
2017-05-21T11:06:56.300Z,22.63
2017-05-21T11:07:56.338Z,22.39
2017-05-21T11:08:56.327Z,22.19
2017-05-21T11:09:56.339Z,22.20
2017-05-21T11:10:56.326Z,22.21
2017-05-21T11:11:56.360Z,22.31
2017-05-21T11:12:56.338Z,21.73
2017-05-21T11:13:56.339Z,21.62
2017-05-21T11:14:56.329Z,21.47
2017-05-21T11:15:56.345Z,21.17
2017-05-21T11:16:56.302Z,21.45
2017-05-21T11:17:56.361Z,21.75
2017-05-21T11:18:56.346Z,21.82
2017-05-21T11:19:56.334Z,21.69
2017-05-21T11:20:56.339Z,21.61
2017-05-21T11:21:56.331Z,21.39
2017-05-21T11:22:56.335Z,21.39
2017-05-21T11:23:56.364Z,21.17
2017-05-21T11:24:56.337Z,21.09
2017-05-21T11:25:56.366Z,20.87
2017-05-21T11:26:56.344Z,20.61
2017-05-21T11:27:56.339Z,20.32
2017-05-21T11:28:56.370Z,20.17
2017-05-21T11:29:56.456Z,20.20
2017-05-21T11:30:56.347Z,20.45
2017-05-21T11:31:56.337Z,20.36
2017-05-21T11:32:56.339Z,20.56
2017-05-21T11:33:56.347Z,20.50
2017-05-21T11:34:56.338Z,20.41
2017-05-21T11:35:56.352Z,20.30
2017-05-21T11:36:56.347Z,20.23
2017-05-21T11:37:56.349Z,20.38
2017-05-21T11:38:56.375Z,20.45
2017-05-21T11:39:56.346Z,20.49
2017-05-21T11:40:56.355Z,20.70
2017-05-21T11:41:56.406Z,20.93
2017-05-21T11:42:56.331Z,21.32
2017-05-21T11:43:56.459Z,21.76
2017-05-21T11:44:56.357Z,22.09
2017-05-21T11:45:56.355Z,22.45
2017-05-21T11:46:56.363Z,22.59
2017-05-21T11:47:56.357Z,22.88
2017-05-21T11:48:56.360Z,22.97
2017-05-21T11:49:56.356Z,22.97
2017-05-21T11:50:56.320Z,23.05
2017-05-21T11:51:56.361Z,23.04
2017-05-21T11:52:56.317Z,22.63
2017-05-21T11:53:56.361Z,22.30
2017-05-21T11:54:56.359Z,22.01
2017-05-21T11:55:56.359Z,21.64
2017-05-21T11:56:56.359Z,21.08
2017-05-21T11:57:56.464Z,20.87
2017-05-21T11:58:56.364Z,20.60
2017-05-21T11:59:56.358Z,20.65
2017-05-21T12:00:56.364Z,20.83
2017-05-21T12:01:56.369Z,21.18
2017-05-21T12:02:56.326Z,21.58
2017-05-21T12:03:56.352Z,21.94
2017-05-21T12:04:56.369Z,21.79
2017-05-21T12:05:56.366Z,22.04
2017-05-21T12:06:56.363Z,22.41
2017-05-21T12:07:56.383Z,22.53
2017-05-21T12:08:56.365Z,22.83
2017-05-21T12:09:56.361Z,23.01
2017-05-21T12:10:56.371Z,22.94
2017-05-21T12:11:56.344Z,22.93
2017-05-21T12:12:56.373Z,22.86
2017-05-21T12:13:56.374Z,22.63
2017-05-21T12:14:56.366Z,22.54
2017-05-21T12:15:56.477Z,22.10
2017-05-21T12:16:56.391Z,21.83
2017-05-21T12:17:56.364Z,21.62
2017-05-21T12:18:56.349Z,21.39
2017-05-21T12:19:56.372Z,21.43
2017-05-21T12:20:56.334Z,21.67
2017-05-21T12:21:56.389Z,21.98
2017-05-21T12:22:56.395Z,22.14
2017-05-21T12:23:56.398Z,22.30
2017-05-21T12:24:56.383Z,22.70
2017-05-21T12:25:56.341Z,22.97
2017-05-21T12:26:56.377Z,22.95
2017-05-21T12:27:56.340Z,23.17
2017-05-21T12:28:56.373Z,23.53
2017-05-21T12:29:56.398Z,23.69
2017-05-21T12:30:56.375Z,23.67
2017-05-21T12:31:56.370Z,23.78
2017-05-21T12:32:56.345Z,24.04
2017-05-21T12:33:56.375Z,24.11
2017-05-21T12:34:56.379Z,24.14
2017-05-21T12:35:56.344Z,24.16
2017-05-21T12:36:56.389Z,24.25
2017-05-21T12:37:56.385Z,24.31
2017-05-21T12:38:56.357Z,24.29
2017-05-21T12:39:56.383Z,24.30
2017-05-21T12:40:56.375Z,23.56
2017-05-21T12:41:56.437Z,23.20
2017-05-21T12:42:56.386Z,23.09
2017-05-21T12:43:56.362Z,23.09
2017-05-21T12:44:56.343Z,22.95
2017-05-21T12:45:56.395Z,22.79
2017-05-21T12:46:56.404Z,22.80
2017-05-21T12:47:56.395Z,22.87
2017-05-21T12:48:56.404Z,22.83
2017-05-21T12:49:56.392Z,22.98
2017-05-21T12:50:56.407Z,23.12
2017-05-21T12:51:56.363Z,23.13
2017-05-21T12:52:56.379Z,23.02
2017-05-21T12:53:56.367Z,23.08
2017-05-21T12:54:56.368Z,23.06
2017-05-21T12:55:56.381Z,23.31
2017-05-21T12:56:56.370Z,23.56
2017-05-21T12:57:56.367Z,23.68
2017-05-21T12:58:56.390Z,23.91
2017-05-21T12:59:56.392Z,23.97
2017-05-21T13:00:56.392Z,24.02
2017-05-21T13:01:56.397Z,24.26
2017-05-21T13:02:56.401Z,24.44
2017-05-21T13:03:56.387Z,24.41
2017-05-21T13:04:56.363Z,24.36